sensor_id;sensor_type;location;lat;lon;timestamp;P1;durP1;ratioP1;P2;durP2;ratioP2
68379;SDS011;57711;53.196;19.638;2024-01-11T00:02:05;47.20;;;22.60;;
68379;SDS011;57711;53.196;19.638;2024-01-11T00:04:32;63.50;;;26.50;;
68379;SDS011;57711;53.196;19.638;2024-01-11T00:06:59;40.00;;;20.00;;
68379;SDS011;57711;53.196;19.638;2024-01-11T00:09:26;33.90;;;17.60;;
68379;SDS011;57711;53.196;19.638;2024-01-11T00:11:53;81.00;;;34.30;;
68379;SDS011;57711;53.196;19.638;2024-01-11T00:14:20;43.90;;;20.90;;
68379;SDS011;57711;53.196;19.638;2024-01-11T00:16:48;37.00;;;18.70;;
68379;SDS011;57711;53.196;19.638;2024-01-11T00:19:15;37.50;;;17.60;;
68379;SDS011;57711;53.196;19.638;2024-01-11T00:21:42;39.80;;;18.20;;
68379;SDS011;57711;53.196;19.638;2024-01-11T00:24:09;34.90;;;17.70;;
68379;SDS011;57711;53.196;19.638;2024-01-11T00:26:36;35.80;;;18.20;;
68379;SDS011;57711;53.196;19.638;2024-01-11T00:29:03;33.70;;;16.90;;
68379;SDS011;57711;53.196;19.638;2024-01-11T00:31:31;27.10;;;14.60;;
68379;SDS011;57711;53.196;19.638;2024-01-11T00:33:58;36.20;;;16.40;;
68379;SDS011;57711;53.196;19.638;2024-01-11T00:36:26;30.80;;;15.70;;
68379;SDS011;57711;53.196;19.638;2024-01-11T00:38:53;29.30;;;15.20;;
68379;SDS011;57711;53.196;19.638;2024-01-11T00:41:20;36.00;;;16.90;;
68379;SDS011;57711;53.196;19.638;2024-01-11T00:43:47;36.20;;;17.00;;
68379;SDS011;57711;53.196;19.638;2024-01-11T00:46:14;31.60;;;15.70;;
68379;SDS011;57711;53.196;19.638;2024-01-11T00:48:41;31.10;;;15.30;;
68379;SDS011;57711;53.196;19.638;2024-01-11T00:51:09;31.20;;;15.30;;
68379;SDS011;57711;53.196;19.638;2024-01-11T00:53:36;34.40;;;15.50;;
68379;SDS011;57711;53.196;19.638;2024-01-11T00:56:03;32.40;;;15.10;;
68379;SDS011;57711;53.196;19.638;2024-01-11T00:58:30;36.50;;;16.20;;
68379;SDS011;57711;53.196;19.638;2024-01-11T01:00:57;30.30;;;14.10;;
68379;SDS011;57711;53.196;19.638;2024-01-11T01:03:24;29.70;;;16.50;;
68379;SDS011;57711;53.196;19.638;2024-01-11T01:05:51;29.20;;;15.10;;
68379;SDS011;57711;53.196;19.638;2024-01-11T01:08:19;37.40;;;16.10;;
68379;SDS011;57711;53.196;19.638;2024-01-11T01:10:46;35.90;;;17.50;;
68379;SDS011;57711;53.196;19.638;2024-01-11T01:13:13;40.40;;;16.30;;
68379;SDS011;57711;53.196;19.638;2024-01-11T01:15:40;34.60;;;17.70;;
68379;SDS011;57711;53.196;19.638;2024-01-11T01:18:07;31.80;;;14.70;;
68379;SDS011;57711;53.196;19.638;2024-01-11T01:20:35;34.60;;;16.40;;
68379;SDS011;57711;53.196;19.638;2024-01-11T01:23:02;38.10;;;17.00;;
68379;SDS011;57711;53.196;19.638;2024-01-11T01:25:29;53.00;;;21.90;;
68379;SDS011;57711;53.196;19.638;2024-01-11T01:27:57;41.00;;;17.50;;
68379;SDS011;57711;53.196;19.638;2024-01-11T01:30:25;46.20;;;18.00;;
68379;SDS011;57711;53.196;19.638;2024-01-11T01:32:53;70.10;;;26.60;;
68379;SDS011;57711;53.196;19.638;2024-01-11T01:35:20;49.60;;;21.40;;
68379;SDS011;57711;53.196;19.638;2024-01-11T01:37:47;48.70;;;19.30;;
68379;SDS011;57711;53.196;19.638;2024-01-11T01:40:15;49.80;;;21.00;;
68379;SDS011;57711;53.196;19.638;2024-01-11T01:42:42;64.00;;;26.00;;
68379;SDS011;57711;53.196;19.638;2024-01-11T01:45:10;45.40;;;20.10;;
68379;SDS011;57711;53.196;19.638;2024-01-11T01:47:41;46.00;;;19.90;;
68379;SDS011;57711;53.196;19.638;2024-01-11T01:50:10;48.30;;;20.50;;
68379;SDS011;57711;53.196;19.638;2024-01-11T01:52:39;56.20;;;22.50;;
68379;SDS011;57711;53.196;19.638;2024-01-11T01:55:09;54.80;;;21.40;;
68379;SDS011;57711;53.196;19.638;2024-01-11T01:57:37;42.70;;;19.40;;
68379;SDS011;57711;53.196;19.638;2024-01-11T02:00:07;128.80;;;50.40;;
68379;SDS011;57711;53.196;19.638;2024-01-11T02:02:37;85.80;;;42.50;;
68379;SDS011;57711;53.196;19.638;2024-01-11T02:05:06;55.90;;;25.80;;
68379;SDS011;57711;53.196;19.638;2024-01-11T02:07:35;52.60;;;21.80;;
68379;SDS011;57711;53.196;19.638;2024-01-11T02:10:02;52.60;;;20.30;;
68379;SDS011;57711;53.196;19.638;2024-01-11T02:12:30;38.30;;;17.80;;
68379;SDS011;57711;53.196;19.638;2024-01-11T02:14:57;40.40;;;18.60;;
68379;SDS011;57711;53.196;19.638;2024-01-11T02:17:25;32.80;;;16.70;;
68379;SDS011;57711;53.196;19.638;2024-01-11T02:19:52;36.00;;;16.70;;
68379;SDS011;57711;53.196;19.638;2024-01-11T02:22:29;35.10;;;16.30;;
68379;SDS011;57711;53.196;19.638;2024-01-11T02:25:01;40.60;;;18.20;;
68379;SDS011;57711;53.196;19.638;2024-01-11T02:27:29;40.00;;;21.00;;
68379;SDS011;57711;53.196;19.638;2024-01-11T02:29:56;38.60;;;16.80;;
68379;SDS011;57711;53.196;19.638;2024-01-11T02:32:23;42.90;;;17.00;;
68379;SDS011;57711;53.196;19.638;2024-01-11T02:34:50;72.80;;;26.20;;
68379;SDS011;57711;53.196;19.638;2024-01-11T02:37:17;47.70;;;20.20;;
68379;SDS011;57711;53.196;19.638;2024-01-11T02:39:45;64.00;;;24.00;;
68379;SDS011;57711;53.196;19.638;2024-01-11T02:42:12;98.80;;;32.30;;
68379;SDS011;57711;53.196;19.638;2024-01-11T02:44:40;81.80;;;31.10;;
68379;SDS011;57711;53.196;19.638;2024-01-11T02:47:07;50.40;;;20.30;;
68379;SDS011;57711;53.196;19.638;2024-01-11T02:49:34;95.10;;;31.90;;
68379;SDS011;57711;53.196;19.638;2024-01-11T02:52:03;79.50;;;29.40;;
68379;SDS011;57711;53.196;19.638;2024-01-11T02:54:30;47.50;;;20.80;;
68379;SDS011;57711;53.196;19.638;2024-01-11T02:56:57;40.30;;;17.60;;
68379;SDS011;57711;53.196;19.638;2024-01-11T02:59:24;45.40;;;18.40;;
68379;SDS011;57711;53.196;19.638;2024-01-11T03:01:51;69.30;;;24.60;;
68379;SDS011;57711;53.196;19.638;2024-01-11T03:04:18;51.60;;;21.00;;
68379;SDS011;57711;53.196;19.638;2024-01-11T03:06:45;50.40;;;22.90;;
68379;SDS011;57711;53.196;19.638;2024-01-11T03:09:12;37.90;;;18.90;;
68379;SDS011;57711;53.196;19.638;2024-01-11T03:11:39;36.80;;;17.70;;
68379;SDS011;57711;53.196;19.638;2024-01-11T03:14:07;34.40;;;16.80;;
68379;SDS011;57711;53.196;19.638;2024-01-11T03:16:34;36.00;;;18.40;;
68379;SDS011;57711;53.196;19.638;2024-01-11T03:19:01;32.10;;;16.20;;
68379;SDS011;57711;53.196;19.638;2024-01-11T03:21:30;32.70;;;16.60;;
68379;SDS011;57711;53.196;19.638;2024-01-11T03:23:57;27.30;;;13.90;;
68379;SDS011;57711;53.196;19.638;2024-01-11T03:26:24;44.00;;;25.00;;
68379;SDS011;57711;53.196;19.638;2024-01-11T03:28:51;36.40;;;19.60;;
68379;SDS011;57711;53.196;19.638;2024-01-11T03:31:18;30.00;;;15.00;;
68379;SDS011;57711;53.196;19.638;2024-01-11T03:33:45;43.50;;;19.40;;
68379;SDS011;57711;53.196;19.638;2024-01-11T03:36:12;36.60;;;18.30;;
68379;SDS011;57711;53.196;19.638;2024-01-11T03:38:39;38.20;;;18.50;;
68379;SDS011;57711;53.196;19.638;2024-01-11T03:41:07;33.60;;;16.80;;
68379;SDS011;57711;53.196;19.638;2024-01-11T03:43:38;31.30;;;15.90;;
68379;SDS011;57711;53.196;19.638;2024-01-11T03:46:05;42.30;;;21.20;;
68379;SDS011;57711;53.196;19.638;2024-01-11T03:48:33;36.50;;;16.90;;
68379;SDS011;57711;53.196;19.638;2024-01-11T03:51:02;32.30;;;15.50;;
68379;SDS011;57711;53.196;19.638;2024-01-11T03:53:30;32.20;;;16.40;;
68379;SDS011;57711;53.196;19.638;2024-01-11T03:55:57;29.80;;;15.60;;
68379;SDS011;57711;53.196;19.638;2024-01-11T03:58:24;33.20;;;16.20;;
68379;SDS011;57711;53.196;19.638;2024-01-11T04:00:51;49.10;;;26.20;;
68379;SDS011;57711;53.196;19.638;2024-01-11T04:03:18;33.60;;;16.60;;
68379;SDS011;57711;53.196;19.638;2024-01-11T04:05:45;29.60;;;15.90;;
68379;SDS011;57711;53.196;19.638;2024-01-11T04:08:12;33.90;;;17.70;;
68379;SDS011;57711;53.196;19.638;2024-01-11T04:10:40;30.70;;;14.40;;
68379;SDS011;57711;53.196;19.638;2024-01-11T04:13:07;37.30;;;19.20;;
68379;SDS011;57711;53.196;19.638;2024-01-11T04:15:34;33.10;;;17.10;;
68379;SDS011;57711;53.196;19.638;2024-01-11T04:18:01;384.00;;;70.20;;
68379;SDS011;57711;53.196;19.638;2024-01-11T04:20:29;106.10;;;37.50;;
68379;SDS011;57711;53.196;19.638;2024-01-11T04:22:56;99.40;;;40.50;;
68379;SDS011;57711;53.196;19.638;2024-01-11T04:25:23;235.90;;;116.10;;
68379;SDS011;57711;53.196;19.638;2024-01-11T04:27:50;150.00;;;85.10;;
68379;SDS011;57711;53.196;19.638;2024-01-11T04:30:17;220.80;;;95.20;;
68379;SDS011;57711;53.196;19.638;2024-01-11T04:32:44;286.10;;;121.70;;
68379;SDS011;57711;53.196;19.638;2024-01-11T04:35:11;301.70;;;100.10;;
68379;SDS011;57711;53.196;19.638;2024-01-11T04:37:39;336.70;;;112.50;;
68379;SDS011;57711;53.196;19.638;2024-01-11T04:40:08;197.80;;;77.80;;
68379;SDS011;57711;53.196;19.638;2024-01-11T04:42:35;349.00;;;119.20;;
68379;SDS011;57711;53.196;19.638;2024-01-11T04:45:02;532.60;;;223.00;;
68379;SDS011;57711;53.196;19.638;2024-01-11T04:47:31;472.70;;;209.80;;
68379;SDS011;57711;53.196;19.638;2024-01-11T04:49:59;220.40;;;118.00;;
68379;SDS011;57711;53.196;19.638;2024-01-11T04:52:26;194.10;;;91.60;;
68379;SDS011;57711;53.196;19.638;2024-01-11T04:54:54;499.20;;;134.40;;
68379;SDS011;57711;53.196;19.638;2024-01-11T04:57:24;369.00;;;101.20;;
68379;SDS011;57711;53.196;19.638;2024-01-11T04:59:56;294.90;;;88.00;;
68379;SDS011;57711;53.196;19.638;2024-01-11T05:02:26;731.20;;;310.40;;
68379;SDS011;57711;53.196;19.638;2024-01-11T05:04:54;280.40;;;131.00;;
68379;SDS011;57711;53.196;19.638;2024-01-11T05:07:21;154.10;;;79.40;;
68379;SDS011;57711;53.196;19.638;2024-01-11T05:09:48;167.00;;;67.50;;
68379;SDS011;57711;53.196;19.638;2024-01-11T05:12:15;168.90;;;51.90;;
68379;SDS011;57711;53.196;19.638;2024-01-11T05:14:43;234.80;;;60.90;;
68379;SDS011;57711;53.196;19.638;2024-01-11T05:17:10;110.30;;;41.60;;
68379;SDS011;57711;53.196;19.638;2024-01-11T05:19:37;681.00;;;329.50;;
68379;SDS011;57711;53.196;19.638;2024-01-11T05:22:04;91.80;;;42.30;;
68379;SDS011;57711;53.196;19.638;2024-01-11T05:24:31;81.40;;;42.60;;
68379;SDS011;57711;53.196;19.638;2024-01-11T05:26:58;294.20;;;89.10;;
68379;SDS011;57711;53.196;19.638;2024-01-11T05:29:26;133.90;;;53.70;;
68379;SDS011;57711;53.196;19.638;2024-01-11T05:31:53;206.30;;;79.00;;
68379;SDS011;57711;53.196;19.638;2024-01-11T05:34:20;256.20;;;71.80;;
68379;SDS011;57711;53.196;19.638;2024-01-11T05:36:47;288.20;;;90.90;;
68379;SDS011;57711;53.196;19.638;2024-01-11T05:39:14;81.90;;;38.40;;
68379;SDS011;57711;53.196;19.638;2024-01-11T05:41:44;84.30;;;41.30;;
68379;SDS011;57711;53.196;19.638;2024-01-11T05:44:12;57.90;;;29.80;;
68379;SDS011;57711;53.196;19.638;2024-01-11T05:46:39;79.20;;;37.40;;
68379;SDS011;57711;53.196;19.638;2024-01-11T05:49:06;52.10;;;30.80;;
68379;SDS011;57711;53.196;19.638;2024-01-11T05:51:34;43.70;;;25.00;;
68379;SDS011;57711;53.196;19.638;2024-01-11T05:54:01;33.50;;;20.90;;
68379;SDS011;57711;53.196;19.638;2024-01-11T05:56:28;215.00;;;70.90;;
68379;SDS011;57711;53.196;19.638;2024-01-11T05:58:55;82.90;;;34.70;;
68379;SDS011;57711;53.196;19.638;2024-01-11T06:01:22;90.10;;;40.50;;
68379;SDS011;57711;53.196;19.638;2024-01-11T06:03:50;76.20;;;38.80;;
68379;SDS011;57711;53.196;19.638;2024-01-11T06:06:17;62.30;;;41.30;;
68379;SDS011;57711;53.196;19.638;2024-01-11T06:08:44;44.40;;;27.00;;
68379;SDS011;57711;53.196;19.638;2024-01-11T06:11:11;51.30;;;27.30;;
68379;SDS011;57711;53.196;19.638;2024-01-11T06:13:40;39.10;;;21.40;;
68379;SDS011;57711;53.196;19.638;2024-01-11T06:16:07;52.00;;;26.70;;
68379;SDS011;57711;53.196;19.638;2024-01-11T06:18:38;31.60;;;19.80;;
68379;SDS011;57711;53.196;19.638;2024-01-11T06:21:05;23.00;;;15.50;;
68379;SDS011;57711;53.196;19.638;2024-01-11T06:23:32;18.90;;;12.00;;
68379;SDS011;57711;53.196;19.638;2024-01-11T06:25:59;21.70;;;13.20;;
68379;SDS011;57711;53.196;19.638;2024-01-11T06:28:27;73.20;;;25.70;;
68379;SDS011;57711;53.196;19.638;2024-01-11T06:30:54;25.50;;;12.70;;
68379;SDS011;57711;53.196;19.638;2024-01-11T06:33:21;83.60;;;31.50;;
68379;SDS011;57711;53.196;19.638;2024-01-11T06:35:48;51.30;;;21.10;;
68379;SDS011;57711;53.196;19.638;2024-01-11T06:38:15;23.50;;;13.00;;
68379;SDS011;57711;53.196;19.638;2024-01-11T06:40:42;28.10;;;16.30;;
68379;SDS011;57711;53.196;19.638;2024-01-11T06:43:10;19.00;;;11.30;;
68379;SDS011;57711;53.196;19.638;2024-01-11T06:45:38;22.80;;;12.80;;
68379;SDS011;57711;53.196;19.638;2024-01-11T06:48:05;33.00;;;18.30;;
68379;SDS011;57711;53.196;19.638;2024-01-11T06:50:33;21.00;;;13.20;;
68379;SDS011;57711;53.196;19.638;2024-01-11T06:53:00;30.30;;;22.80;;
68379;SDS011;57711;53.196;19.638;2024-01-11T06:55:28;14.70;;;11.70;;
68379;SDS011;57711;53.196;19.638;2024-01-11T06:57:55;24.70;;;11.60;;
68379;SDS011;57711;53.196;19.638;2024-01-11T07:00:22;32.70;;;13.50;;
68379;SDS011;57711;53.196;19.638;2024-01-11T07:02:49;25.60;;;12.60;;
68379;SDS011;57711;53.196;19.638;2024-01-11T07:05:16;14.00;;;9.30;;
68379;SDS011;57711;53.196;19.638;2024-01-11T07:07:43;18.00;;;9.70;;
68379;SDS011;57711;53.196;19.638;2024-01-11T07:10:10;14.70;;;9.30;;
68379;SDS011;57711;53.196;19.638;2024-01-11T07:12:39;13.50;;;9.10;;
68379;SDS011;57711;53.196;19.638;2024-01-11T07:15:08;13.30;;;8.40;;
68379;SDS011;57711;53.196;19.638;2024-01-11T07:17:35;11.60;;;8.00;;
68379;SDS011;57711;53.196;19.638;2024-01-11T07:20:03;15.10;;;10.70;;
68379;SDS011;57711;53.196;19.638;2024-01-11T07:22:31;22.50;;;13.80;;
68379;SDS011;57711;53.196;19.638;2024-01-11T07:24:58;13.20;;;9.70;;
68379;SDS011;57711;53.196;19.638;2024-01-11T07:27:25;21.10;;;11.60;;
68379;SDS011;57711;53.196;19.638;2024-01-11T07:29:52;20.00;;;11.80;;
68379;SDS011;57711;53.196;19.638;2024-01-11T07:32:19;18.70;;;9.80;;
68379;SDS011;57711;53.196;19.638;2024-01-11T07:34:46;15.10;;;10.50;;
68379;SDS011;57711;53.196;19.638;2024-01-11T07:37:14;15.20;;;9.70;;
68379;SDS011;57711;53.196;19.638;2024-01-11T07:39:41;21.00;;;10.60;;
68379;SDS011;57711;53.196;19.638;2024-01-11T07:42:07;12.50;;;9.30;;
68379;SDS011;57711;53.196;19.638;2024-01-11T07:44:34;16.50;;;10.10;;
68379;SDS011;57711;53.196;19.638;2024-01-11T07:47:01;19.20;;;9.70;;
68379;SDS011;57711;53.196;19.638;2024-01-11T07:49:29;20.00;;;11.00;;
68379;SDS011;57711;53.196;19.638;2024-01-11T07:51:56;18.10;;;10.30;;
68379;SDS011;57711;53.196;19.638;2024-01-11T07:54:23;19.20;;;11.40;;
68379;SDS011;57711;53.196;19.638;2024-01-11T07:56:50;15.10;;;9.20;;
68379;SDS011;57711;53.196;19.638;2024-01-11T07:59:17;20.30;;;13.90;;
68379;SDS011;57711;53.196;19.638;2024-01-11T08:01:44;98.90;;;28.50;;
68379;SDS011;57711;53.196;19.638;2024-01-11T08:04:12;25.30;;;14.40;;
68379;SDS011;57711;53.196;19.638;2024-01-11T08:06:39;32.70;;;19.30;;
68379;SDS011;57711;53.196;19.638;2024-01-11T08:09:06;19.40;;;12.60;;
68379;SDS011;57711;53.196;19.638;2024-01-11T08:11:37;17.70;;;10.70;;
68379;SDS011;57711;53.196;19.638;2024-01-11T08:14:08;16.80;;;10.40;;
68379;SDS011;57711;53.196;19.638;2024-01-11T08:16:35;13.70;;;9.80;;
68379;SDS011;57711;53.196;19.638;2024-01-11T08:19:02;15.10;;;9.30;;
68379;SDS011;57711;53.196;19.638;2024-01-11T08:21:30;18.80;;;10.90;;
68379;SDS011;57711;53.196;19.638;2024-01-11T08:23:57;14.50;;;9.00;;
68379;SDS011;57711;53.196;19.638;2024-01-11T08:26:29;37.70;;;15.50;;
68379;SDS011;57711;53.196;19.638;2024-01-11T08:28:57;17.00;;;10.00;;
68379;SDS011;57711;53.196;19.638;2024-01-11T08:31:24;243.20;;;80.10;;
68379;SDS011;57711;53.196;19.638;2024-01-11T08:33:52;29.10;;;15.90;;
68379;SDS011;57711;53.196;19.638;2024-01-11T08:36:20;21.80;;;13.40;;
68379;SDS011;57711;53.196;19.638;2024-01-11T08:38:47;19.50;;;11.70;;
68379;SDS011;57711;53.196;19.638;2024-01-11T08:41:14;17.60;;;10.20;;
68379;SDS011;57711;53.196;19.638;2024-01-11T08:43:42;15.50;;;9.10;;
68379;SDS011;57711;53.196;19.638;2024-01-11T08:46:09;13.70;;;9.20;;
68379;SDS011;57711;53.196;19.638;2024-01-11T08:48:36;15.70;;;9.30;;
68379;SDS011;57711;53.196;19.638;2024-01-11T08:51:03;15.50;;;9.80;;
68379;SDS011;57711;53.196;19.638;2024-01-11T08:53:30;18.20;;;10.10;;
68379;SDS011;57711;53.196;19.638;2024-01-11T08:55:57;16.40;;;9.50;;
68379;SDS011;57711;53.196;19.638;2024-01-11T08:58:25;13.90;;;9.40;;
68379;SDS011;57711;53.196;19.638;2024-01-11T09:00:53;18.10;;;10.30;;
68379;SDS011;57711;53.196;19.638;2024-01-11T09:03:20;16.50;;;10.60;;
68379;SDS011;57711;53.196;19.638;2024-01-11T09:05:48;18.80;;;10.60;;
68379;SDS011;57711;53.196;19.638;2024-01-11T09:08:15;18.90;;;11.30;;
68379;SDS011;57711;53.196;19.638;2024-01-11T09:10:42;15.50;;;10.50;;
68379;SDS011;57711;53.196;19.638;2024-01-11T09:13:09;17.30;;;10.10;;
68379;SDS011;57711;53.196;19.638;2024-01-11T09:15:40;17.40;;;11.10;;
68379;SDS011;57711;53.196;19.638;2024-01-11T09:18:07;20.00;;;12.10;;
68379;SDS011;57711;53.196;19.638;2024-01-11T09:20:35;24.60;;;12.00;;
68379;SDS011;57711;53.196;19.638;2024-01-11T09:23:02;21.20;;;12.90;;
68379;SDS011;57711;53.196;19.638;2024-01-11T09:25:30;16.70;;;10.20;;
68379;SDS011;57711;53.196;19.638;2024-01-11T09:27:58;18.70;;;8.90;;
68379;SDS011;57711;53.196;19.638;2024-01-11T09:30:25;18.80;;;10.80;;
68379;SDS011;57711;53.196;19.638;2024-01-11T09:32:52;15.90;;;9.80;;
68379;SDS011;57711;53.196;19.638;2024-01-11T09:35:20;26.40;;;12.00;;
68379;SDS011;57711;53.196;19.638;2024-01-11T09:37:47;19.00;;;10.60;;
68379;SDS011;57711;53.196;19.638;2024-01-11T09:40:14;17.00;;;9.90;;
68379;SDS011;57711;53.196;19.638;2024-01-11T09:42:41;12.70;;;9.00;;
68379;SDS011;57711;53.196;19.638;2024-01-11T09:45:09;20.60;;;9.20;;
68379;SDS011;57711;53.196;19.638;2024-01-11T09:47:39;13.50;;;8.40;;
68379;SDS011;57711;53.196;19.638;2024-01-11T09:50:07;14.30;;;8.00;;
68379;SDS011;57711;53.196;19.638;2024-01-11T09:52:34;17.80;;;8.60;;
68379;SDS011;57711;53.196;19.638;2024-01-11T09:55:04;16.70;;;8.70;;
68379;SDS011;57711;53.196;19.638;2024-01-11T09:57:32;13.30;;;8.00;;
68379;SDS011;57711;53.196;19.638;2024-01-11T10:00:03;15.60;;;8.50;;
68379;SDS011;57711;53.196;19.638;2024-01-11T10:02:36;11.90;;;7.80;;
68379;SDS011;57711;53.196;19.638;2024-01-11T10:05:03;12.60;;;7.50;;
68379;SDS011;57711;53.196;19.638;2024-01-11T10:07:30;19.20;;;7.90;;
68379;SDS011;57711;53.196;19.638;2024-01-11T10:09:59;12.40;;;8.00;;
68379;SDS011;57711;53.196;19.638;2024-01-11T10:12:30;15.50;;;8.20;;
68379;SDS011;57711;53.196;19.638;2024-01-11T10:15:04;15.20;;;9.10;;
68379;SDS011;57711;53.196;19.638;2024-01-11T10:20:00;15.40;;;8.30;;
68379;SDS011;57711;53.196;19.638;2024-01-11T10:22:29;17.90;;;8.40;;
68379;SDS011;57711;53.196;19.638;2024-01-11T10:25:12;13.10;;;8.20;;
68379;SDS011;57711;53.196;19.638;2024-01-11T10:27:41;16.90;;;9.80;;
68379;SDS011;57711;53.196;19.638;2024-01-11T10:30:10;17.70;;;9.60;;
68379;SDS011;57711;53.196;19.638;2024-01-11T10:32:44;16.00;;;9.60;;
68379;SDS011;57711;53.196;19.638;2024-01-11T10:35:12;16.30;;;9.80;;
68379;SDS011;57711;53.196;19.638;2024-01-11T10:37:40;19.00;;;11.10;;
68379;SDS011;57711;53.196;19.638;2024-01-11T10:40:09;20.90;;;11.70;;
68379;SDS011;57711;53.196;19.638;2024-01-11T10:42:43;35.50;;;15.10;;
68379;SDS011;57711;53.196;19.638;2024-01-11T10:45:16;22.90;;;12.10;;
68379;SDS011;57711;53.196;19.638;2024-01-11T10:47:54;23.00;;;11.30;;
68379;SDS011;57711;53.196;19.638;2024-01-11T10:50:34;18.10;;;11.10;;
68379;SDS011;57711;53.196;19.638;2024-01-11T10:53:53;26.00;;;13.60;;
68379;SDS011;57711;53.196;19.638;2024-01-11T10:56:02;20.90;;;11.10;;
68379;SDS011;57711;53.196;19.638;2024-01-11T10:58:35;19.30;;;11.90;;
68379;SDS011;57711;53.196;19.638;2024-01-11T11:01:02;20.20;;;11.40;;
68379;SDS011;57711;53.196;19.638;2024-01-11T11:03:31;19.60;;;10.70;;
68379;SDS011;57711;53.196;19.638;2024-01-11T11:06:01;21.80;;;11.90;;
68379;SDS011;57711;53.196;19.638;2024-01-11T11:08:29;31.70;;;16.10;;
68379;SDS011;57711;53.196;19.638;2024-01-11T11:10:57;19.50;;;12.60;;
68379;SDS011;57711;53.196;19.638;2024-01-11T11:13:25;23.50;;;12.10;;
68379;SDS011;57711;53.196;19.638;2024-01-11T11:15:53;28.80;;;16.60;;
68379;SDS011;57711;53.196;19.638;2024-01-11T11:18:22;16.40;;;9.50;;
68379;SDS011;57711;53.196;19.638;2024-01-11T11:20:51;20.40;;;10.70;;
68379;SDS011;57711;53.196;19.638;2024-01-11T11:23:18;20.40;;;9.90;;
68379;SDS011;57711;53.196;19.638;2024-01-11T11:25:46;18.30;;;9.50;;
68379;SDS011;57711;53.196;19.638;2024-01-11T11:28:15;16.60;;;9.60;;
68379;SDS011;57711;53.196;19.638;2024-01-11T11:30:44;14.00;;;8.60;;
68379;SDS011;57711;53.196;19.638;2024-01-11T11:33:21;16.50;;;8.20;;
68379;SDS011;57711;53.196;19.638;2024-01-11T11:35:56;14.60;;;8.20;;
68379;SDS011;57711;53.196;19.638;2024-01-11T11:38:25;18.30;;;8.70;;
68379;SDS011;57711;53.196;19.638;2024-01-11T11:40:59;15.60;;;8.30;;
68379;SDS011;57711;53.196;19.638;2024-01-11T11:43:27;14.60;;;8.30;;
68379;SDS011;57711;53.196;19.638;2024-01-11T11:45:55;13.20;;;7.50;;
68379;SDS011;57711;53.196;19.638;2024-01-11T11:53:46;13.60;;;8.00;;
68379;SDS011;57711;53.196;19.638;2024-01-11T11:56:21;14.50;;;7.10;;
68379;SDS011;57711;53.196;19.638;2024-01-11T11:58:49;12.50;;;7.50;;
68379;SDS011;57711;53.196;19.638;2024-01-11T12:01:19;12.00;;;6.90;;
68379;SDS011;57711;53.196;19.638;2024-01-11T12:03:46;9.40;;;6.30;;
68379;SDS011;57711;53.196;19.638;2024-01-11T12:06:18;12.80;;;8.20;;
68379;SDS011;57711;53.196;19.638;2024-01-11T12:08:47;16.00;;;8.90;;
68379;SDS011;57711;53.196;19.638;2024-01-11T12:11:19;14.30;;;8.60;;
68379;SDS011;57711;53.196;19.638;2024-01-11T12:13:48;26.00;;;14.00;;
68379;SDS011;57711;53.196;19.638;2024-01-11T12:16:16;27.30;;;15.40;;
68379;SDS011;57711;53.196;19.638;2024-01-11T12:18:44;28.20;;;14.20;;
68379;SDS011;57711;53.196;19.638;2024-01-11T12:21:11;35.60;;;17.90;;
68379;SDS011;57711;53.196;19.638;2024-01-11T12:23:38;17.80;;;10.50;;
68379;SDS011;57711;53.196;19.638;2024-01-11T12:26:06;17.20;;;10.80;;
68379;SDS011;57711;53.196;19.638;2024-01-11T12:28:40;13.70;;;8.70;;
68379;SDS011;57711;53.196;19.638;2024-01-11T12:31:08;17.40;;;8.90;;
68379;SDS011;57711;53.196;19.638;2024-01-11T12:33:36;15.50;;;9.70;;
68379;SDS011;57711;53.196;19.638;2024-01-11T12:36:06;17.30;;;8.80;;
68379;SDS011;57711;53.196;19.638;2024-01-11T12:38:37;16.50;;;8.30;;
68379;SDS011;57711;53.196;19.638;2024-01-11T12:41:06;15.90;;;8.10;;
68379;SDS011;57711;53.196;19.638;2024-01-11T12:43:34;10.20;;;6.50;;
68379;SDS011;57711;53.196;19.638;2024-01-11T12:46:01;13.30;;;7.50;;
68379;SDS011;57711;53.196;19.638;2024-01-11T12:48:29;13.10;;;8.10;;
68379;SDS011;57711;53.196;19.638;2024-01-11T12:50:57;12.40;;;8.00;;
68379;SDS011;57711;53.196;19.638;2024-01-11T12:53:40;11.80;;;7.70;;
68379;SDS011;57711;53.196;19.638;2024-01-11T12:56:07;15.50;;;8.00;;
68379;SDS011;57711;53.196;19.638;2024-01-11T12:58:36;14.10;;;7.30;;
68379;SDS011;57711;53.196;19.638;2024-01-11T13:01:04;16.50;;;8.10;;
68379;SDS011;57711;53.196;19.638;2024-01-11T13:03:35;15.80;;;8.20;;
68379;SDS011;57711;53.196;19.638;2024-01-11T13:06:02;14.80;;;7.30;;
68379;SDS011;57711;53.196;19.638;2024-01-11T13:08:32;11.60;;;7.20;;
68379;SDS011;57711;53.196;19.638;2024-01-11T13:10:59;15.90;;;10.50;;
68379;SDS011;57711;53.196;19.638;2024-01-11T13:13:28;14.00;;;9.30;;
68379;SDS011;57711;53.196;19.638;2024-01-11T13:15:57;14.80;;;7.80;;
68379;SDS011;57711;53.196;19.638;2024-01-11T13:18:24;12.90;;;7.30;;
68379;SDS011;57711;53.196;19.638;2024-01-11T13:20:51;14.00;;;7.80;;
68379;SDS011;57711;53.196;19.638;2024-01-11T13:23:19;12.00;;;7.30;;
68379;SDS011;57711;53.196;19.638;2024-01-11T13:25:48;14.60;;;7.60;;
68379;SDS011;57711;53.196;19.638;2024-01-11T13:28:16;14.60;;;7.80;;
68379;SDS011;57711;53.196;19.638;2024-01-11T13:30:46;13.80;;;7.00;;
68379;SDS011;57711;53.196;19.638;2024-01-11T13:33:14;14.00;;;8.00;;
68379;SDS011;57711;53.196;19.638;2024-01-11T13:35:45;14.70;;;7.70;;
68379;SDS011;57711;53.196;19.638;2024-01-11T13:38:12;18.90;;;7.50;;
68379;SDS011;57711;53.196;19.638;2024-01-11T13:40:40;13.00;;;6.90;;
68379;SDS011;57711;53.196;19.638;2024-01-11T13:43:09;40.90;;;17.50;;
68379;SDS011;57711;53.196;19.638;2024-01-11T13:45:36;17.50;;;9.50;;
68379;SDS011;57711;53.196;19.638;2024-01-11T13:48:04;14.90;;;8.70;;
68379;SDS011;57711;53.196;19.638;2024-01-11T13:50:32;23.10;;;11.70;;
68379;SDS011;57711;53.196;19.638;2024-01-11T13:53:00;15.80;;;8.60;;
68379;SDS011;57711;53.196;19.638;2024-01-11T13:55:29;15.40;;;8.00;;
68379;SDS011;57711;53.196;19.638;2024-01-11T13:58:05;14.60;;;6.70;;
68379;SDS011;57711;53.196;19.638;2024-01-11T14:00:32;19.90;;;9.30;;
68379;SDS011;57711;53.196;19.638;2024-01-11T14:03:00;14.80;;;8.10;;
68379;SDS011;57711;53.196;19.638;2024-01-11T14:05:28;13.30;;;7.70;;
68379;SDS011;57711;53.196;19.638;2024-01-11T14:07:55;12.10;;;7.30;;
68379;SDS011;57711;53.196;19.638;2024-01-11T14:10:26;13.70;;;7.20;;
68379;SDS011;57711;53.196;19.638;2024-01-11T14:12:54;15.00;;;7.90;;
68379;SDS011;57711;53.196;19.638;2024-01-11T14:15:21;14.00;;;8.60;;
68379;SDS011;57711;53.196;19.638;2024-01-11T14:17:49;17.20;;;9.30;;
68379;SDS011;57711;53.196;19.638;2024-01-11T14:20:17;16.30;;;9.80;;
68379;SDS011;57711;53.196;19.638;2024-01-11T14:22:45;22.50;;;12.10;;
68379;SDS011;57711;53.196;19.638;2024-01-11T14:25:19;25.60;;;12.70;;